sim
Sign-in with your pilot id or email,
or register
Callsign
Passwort

Schedule Details

Flight Number: RYR9026
Departure: Girona Costa Brava Airport (LEGE) at 11:00
Arrival: Bratislava M. R. Stefanik Airport (LZIB) at 13:15
Route: Ryanair Passenger Schedule. Enter filed route here before submitting Pirep.

Weather Information
Getting current METAR information for LEGE 232030Z 20007KT 9999 FEW060 13/11 Q1009
Getting current METAR information for LZIB 232030Z 05003KT 360V080 CAVOK 13/10 Q1017

Schedule Frequency

Route Map